sensor_id;sensor_type;location;lat;lon;timestamp;P1;durP1;ratioP1;P2;durP2;ratioP2
16139;SDS011;8175;49.326;12.690;2023-08-31T05:39:40;6.60;;;6.00;;
16139;SDS011;8175;49.326;12.690;2023-08-31T06:14:31;4.33;;;3.87;;
16139;SDS011;8175;49.326;12.690;2023-08-31T06:16:57;4.10;;;3.80;;
16139;SDS011;8175;49.326;12.690;2023-08-31T06:19:23;7.47;;;4.07;;
16139;SDS011;8175;49.326;12.690;2023-08-31T06:21:49;4.67;;;3.97;;
16139;SDS011;8175;49.326;12.690;2023-08-31T06:24:14;4.10;;;3.70;;
16139;SDS011;8175;49.326;12.690;2023-08-31T06:26:40;4.37;;;3.97;;
16139;SDS011;8175;49.326;12.690;2023-08-31T06:29:06;4.30;;;3.90;;
16139;SDS011;8175;49.326;12.690;2023-08-31T06:31:34;4.27;;;3.63;;
16139;SDS011;8175;49.326;12.690;2023-08-31T06:34:00;3.90;;;3.60;;
16139;SDS011;8175;49.326;12.690;2023-08-31T06:36:25;4.47;;;4.07;;
16139;SDS011;8175;49.326;12.690;2023-08-31T06:38:51;4.00;;;3.60;;
16139;SDS011;8175;49.326;12.690;2023-08-31T06:41:16;4.23;;;3.23;;
16139;SDS011;8175;49.326;12.690;2023-08-31T06:43:42;3.67;;;3.37;;
16139;SDS011;8175;49.326;12.690;2023-08-31T06:46:08;7.03;;;3.80;;
16139;SDS011;8175;49.326;12.690;2023-08-31T06:48:33;3.53;;;3.23;;
16139;SDS011;8175;49.326;12.690;2023-08-31T06:50:59;3.90;;;3.20;;
16139;SDS011;8175;49.326;12.690;2023-08-31T06:53:24;4.13;;;3.73;;
16139;SDS011;8175;49.326;12.690;2023-08-31T06:55:50;4.27;;;3.67;;
16139;SDS011;8175;49.326;12.690;2023-08-31T06:58:17;3.87;;;3.47;;
16139;SDS011;8175;49.326;12.690;2023-08-31T07:00:42;5.37;;;3.70;;
16139;SDS011;8175;49.326;12.690;2023-08-31T07:03:08;6.97;;;3.50;;
16139;SDS011;8175;49.326;12.690;2023-08-31T07:05:34;4.33;;;3.70;;
16139;SDS011;8175;49.326;12.690;2023-08-31T07:08:02;4.07;;;3.50;;
16139;SDS011;8175;49.326;12.690;2023-08-31T07:10:28;7.97;;;7.27;;
16139;SDS011;8175;49.326;12.690;2023-08-31T07:12:54;4.57;;;3.50;;
16139;SDS011;8175;49.326;12.690;2023-08-31T07:15:20;3.80;;;3.47;;
16139;SDS011;8175;49.326;12.690;2023-08-31T07:17:45;3.80;;;3.47;;
16139;SDS011;8175;49.326;12.690;2023-08-31T07:20:12;4.30;;;3.90;;
16139;SDS011;8175;49.326;12.690;2023-08-31T07:22:37;6.57;;;3.60;;
16139;SDS011;8175;49.326;12.690;2023-08-31T07:25:04;4.23;;;3.83;;
16139;SDS011;8175;49.326;12.690;2023-08-31T07:27:31;6.23;;;3.63;;
16139;SDS011;8175;49.326;12.690;2023-08-31T07:29:56;3.97;;;3.60;;
16139;SDS011;8175;49.326;12.690;2023-08-31T07:32:22;4.40;;;3.27;;
16139;SDS011;8175;49.326;12.690;2023-08-31T07:34:47;3.20;;;2.87;;
16139;SDS011;8175;49.326;12.690;2023-08-31T07:37:13;4.53;;;3.20;;
16139;SDS011;8175;49.326;12.690;2023-08-31T07:39:39;5.23;;;3.30;;
16139;SDS011;8175;49.326;12.690;2023-08-31T07:42:05;3.50;;;2.50;;
16139;SDS011;8175;49.326;12.690;2023-08-31T07:44:31;3.50;;;3.17;;
16139;SDS011;8175;49.326;12.690;2023-08-31T07:46:56;6.10;;;3.30;;
16139;SDS011;8175;49.326;12.690;2023-08-31T07:49:22;6.33;;;3.50;;
16139;SDS011;8175;49.326;12.690;2023-08-31T07:51:48;4.23;;;3.43;;
16139;SDS011;8175;49.326;12.690;2023-08-31T07:54:19;3.40;;;3.10;;
16139;SDS011;8175;49.326;12.690;2023-08-31T07:56:48;4.80;;;3.60;;
16139;SDS011;8175;49.326;12.690;2023-08-31T07:59:13;4.63;;;3.57;;
16139;SDS011;8175;49.326;12.690;2023-08-31T08:01:39;5.20;;;3.47;;
16139;SDS011;8175;49.326;12.690;2023-08-31T08:04:06;3.40;;;3.10;;
16139;SDS011;8175;49.326;12.690;2023-08-31T08:06:31;4.67;;;3.10;;
16139;SDS011;8175;49.326;12.690;2023-08-31T08:08:57;4.23;;;3.37;;
16139;SDS011;8175;49.326;12.690;2023-08-31T08:11:23;4.90;;;3.67;;
16139;SDS011;8175;49.326;12.690;2023-08-31T08:13:48;4.70;;;3.13;;
16139;SDS011;8175;49.326;12.690;2023-08-31T08:16:14;3.83;;;3.03;;
16139;SDS011;8175;49.326;12.690;2023-08-31T08:18:40;2.90;;;2.10;;
16139;SDS011;8175;49.326;12.690;2023-08-31T08:21:06;4.17;;;3.00;;
16139;SDS011;8175;49.326;12.690;2023-08-31T08:23:32;3.22;;;2.30;;
16139;SDS011;8175;49.326;12.690;2023-08-31T08:25:57;2.80;;;2.50;;
16139;SDS011;8175;49.326;12.690;2023-08-31T08:28:24;3.00;;;2.50;;
16139;SDS011;8175;49.326;12.690;2023-08-31T08:30:51;3.40;;;2.50;;
16139;SDS011;8175;49.326;12.690;2023-08-31T08:33:16;3.27;;;2.10;;
16139;SDS011;8175;49.326;12.690;2023-08-31T08:35:42;5.60;;;3.03;;
16139;SDS011;8175;49.326;12.690;2023-08-31T08:38:07;2.93;;;2.60;;
16139;SDS011;8175;49.326;12.690;2023-08-31T08:40:34;5.60;;;2.60;;
16139;SDS011;8175;49.326;12.690;2023-08-31T08:43:00;4.03;;;3.17;;
16139;SDS011;8175;49.326;12.690;2023-08-31T08:45:29;4.20;;;3.33;;
16139;SDS011;8175;49.326;12.690;2023-08-31T08:48:01;4.27;;;2.90;;
16139;SDS011;8175;49.326;12.690;2023-08-31T08:50:30;3.40;;;2.60;;
16139;SDS011;8175;49.326;12.690;2023-08-31T08:52:59;3.60;;;2.67;;
16139;SDS011;8175;49.326;12.690;2023-08-31T08:55:25;3.13;;;2.83;;
16139;SDS011;8175;49.326;12.690;2023-08-31T08:57:51;3.13;;;2.20;;
16139;SDS011;8175;49.326;12.690;2023-08-31T09:00:16;3.07;;;2.77;;
16139;SDS011;8175;49.326;12.690;2023-08-31T09:02:42;3.93;;;2.20;;
16139;SDS011;8175;49.326;12.690;2023-08-31T09:05:08;3.43;;;2.10;;
16139;SDS011;8175;49.326;12.690;2023-08-31T09:07:35;3.13;;;2.50;;
16139;SDS011;8175;49.326;12.690;2023-08-31T09:10:01;3.73;;;2.60;;
16139;SDS011;8175;49.326;12.690;2023-08-31T09:12:28;4.67;;;2.80;;
16139;SDS011;8175;49.326;12.690;2023-08-31T09:14:57;2.67;;;2.47;;
16139;SDS011;8175;49.326;12.690;2023-08-31T09:17:23;3.33;;;2.33;;
16139;SDS011;8175;49.326;12.690;2023-08-31T09:19:58;5.75;;;2.22;;
16139;SDS011;8175;49.326;12.690;2023-08-31T09:22:25;2.75;;;2.15;;
16139;SDS011;8175;49.326;12.690;2023-08-31T09:24:51;3.05;;;2.33;;
16139;SDS011;8175;49.326;12.690;2023-08-31T09:27:17;3.75;;;2.45;;
16139;SDS011;8175;49.326;12.690;2023-08-31T09:29:46;2.50;;;2.00;;
16139;SDS011;8175;49.326;12.690;2023-08-31T09:32:17;6.13;;;2.60;;
16139;SDS011;8175;49.326;12.690;2023-08-31T09:34:43;3.20;;;1.80;;
16139;SDS011;8175;49.326;12.690;2023-08-31T09:37:10;3.93;;;1.93;;
16139;SDS011;8175;49.326;12.690;2023-08-31T09:39:36;2.67;;;1.83;;
16139;SDS011;8175;49.326;12.690;2023-08-31T09:42:02;2.50;;;2.00;;
16139;SDS011;8175;49.326;12.690;2023-08-31T09:44:28;2.80;;;1.83;;
16139;SDS011;8175;49.326;12.690;2023-08-31T09:46:54;3.10;;;1.77;;
16139;SDS011;8175;49.326;12.690;2023-08-31T09:49:20;2.70;;;2.00;;
16139;SDS011;8175;49.326;12.690;2023-08-31T09:51:48;4.40;;;1.77;;
16139;SDS011;8175;49.326;12.690;2023-08-31T09:54:16;3.97;;;2.07;;
16139;SDS011;8175;49.326;12.690;2023-08-31T09:56:44;3.20;;;2.50;;
16139;SDS011;8175;49.326;12.690;2023-08-31T09:59:12;3.50;;;2.00;;
16139;SDS011;8175;49.326;12.690;2023-08-31T10:01:41;3.30;;;2.37;;
16139;SDS011;8175;49.326;12.690;2023-08-31T10:04:09;3.93;;;1.90;;
16139;SDS011;8175;49.326;12.690;2023-08-31T10:06:36;3.13;;;2.00;;
16139;SDS011;8175;49.326;12.690;2023-08-31T10:09:04;1.97;;;1.77;;
16139;SDS011;8175;49.326;12.690;2023-08-31T10:11:30;2.43;;;2.07;;
16139;SDS011;8175;49.326;12.690;2023-08-31T10:13:57;3.70;;;2.00;;
16139;SDS011;8175;49.326;12.690;2023-08-31T10:16:25;2.43;;;1.80;;
16139;SDS011;8175;49.326;12.690;2023-08-31T10:18:51;2.97;;;1.73;;
16139;SDS011;8175;49.326;12.690;2023-08-31T10:21:17;3.47;;;1.80;;
16139;SDS011;8175;49.326;12.690;2023-08-31T10:23:44;1.80;;;1.70;;
16139;SDS011;8175;49.326;12.690;2023-08-31T10:26:11;3.87;;;1.77;;
16139;SDS011;8175;49.326;12.690;2023-08-31T10:28:40;1.97;;;1.50;;
16139;SDS011;8175;49.326;12.690;2023-08-31T10:33:44;1.70;;;1.60;;
16139;SDS011;8175;49.326;12.690;2023-08-31T10:36:18;2.10;;;1.83;;
16139;SDS011;8175;49.326;12.690;2023-08-31T10:38:59;3.80;;;1.40;;
16139;SDS011;8175;49.326;12.690;2023-08-31T10:41:33;4.13;;;2.20;;
16139;SDS011;8175;49.326;12.690;2023-08-31T10:43:59;2.93;;;1.67;;
16139;SDS011;8175;49.326;12.690;2023-08-31T10:48:56;3.57;;;1.83;;
16139;SDS011;8175;49.326;12.690;2023-08-31T10:51:26;1.80;;;1.37;;
16139;SDS011;8175;49.326;12.690;2023-08-31T10:56:38;2.22;;;2.03;;
16139;SDS011;8175;49.326;12.690;2023-08-31T10:59:16;2.22;;;2.00;;
16139;SDS011;8175;49.326;12.690;2023-08-31T11:04:24;1.85;;;1.42;;
16139;SDS011;8175;49.326;12.690;2023-08-31T11:09:40;3.83;;;2.38;;
16139;SDS011;8175;49.326;12.690;2023-08-31T11:12:07;1.92;;;1.73;;
16139;SDS011;8175;49.326;12.690;2023-08-31T11:14:33;3.85;;;1.92;;
16139;SDS011;8175;49.326;12.690;2023-08-31T11:16:59;2.92;;;1.83;;
16139;SDS011;8175;49.326;12.690;2023-08-31T11:19:26;2.22;;;1.60;;
16139;SDS011;8175;49.326;12.690;2023-08-31T11:21:53;2.88;;;1.60;;
16139;SDS011;8175;49.326;12.690;2023-08-31T11:24:19;4.40;;;1.98;;
16139;SDS011;8175;49.326;12.690;2023-08-31T11:26:55;3.95;;;1.92;;
16139;SDS011;8175;49.326;12.690;2023-08-31T11:29:21;2.95;;;1.85;;
16139;SDS011;8175;49.326;12.690;2023-08-31T11:31:47;2.20;;;1.58;;
16139;SDS011;8175;49.326;12.690;2023-08-31T11:34:16;3.03;;;1.97;;
16139;SDS011;8175;49.326;12.690;2023-08-31T11:36:43;3.33;;;1.87;;
16139;SDS011;8175;49.326;12.690;2023-08-31T11:39:11;2.72;;;1.58;;
16139;SDS011;8175;49.326;12.690;2023-08-31T11:41:37;2.72;;;1.67;;
16139;SDS011;8175;49.326;12.690;2023-08-31T11:44:09;1.50;;;1.40;;
16139;SDS011;8175;49.326;12.690;2023-08-31T11:46:38;2.20;;;1.55;;
16139;SDS011;8175;49.326;12.690;2023-08-31T11:49:06;3.17;;;1.90;;
16139;SDS011;8175;49.326;12.690;2023-08-31T11:51:32;2.58;;;1.80;;
16139;SDS011;8175;49.326;12.690;2023-08-31T11:54:02;3.83;;;1.88;;
16139;SDS011;8175;49.326;12.690;2023-08-31T11:56:41;2.63;;;1.50;;
16139;SDS011;8175;49.326;12.690;2023-08-31T11:59:11;2.50;;;1.38;;
16139;SDS011;8175;49.326;12.690;2023-08-31T12:01:40;1.60;;;1.25;;
16139;SDS011;8175;49.326;12.690;2023-08-31T12:04:11;1.73;;;1.30;;
16139;SDS011;8175;49.326;12.690;2023-08-31T12:06:37;2.13;;;1.50;;
16139;SDS011;8175;49.326;12.690;2023-08-31T12:09:04;2.17;;;1.55;;
16139;SDS011;8175;49.326;12.690;2023-08-31T12:11:33;1.50;;;1.40;;
16139;SDS011;8175;49.326;12.690;2023-08-31T12:14:00;2.20;;;1.50;;
16139;SDS011;8175;49.326;12.690;2023-08-31T12:16:31;1.63;;;1.52;;
16139;SDS011;8175;49.326;12.690;2023-08-31T12:19:04;4.25;;;1.80;;
16139;SDS011;8175;49.326;12.690;2023-08-31T12:21:33;1.70;;;1.60;;
16139;SDS011;8175;49.326;12.690;2023-08-31T12:23:59;2.45;;;1.73;;
16139;SDS011;8175;49.326;12.690;2023-08-31T12:26:25;1.33;;;1.23;;
16139;SDS011;8175;49.326;12.690;2023-08-31T12:28:51;1.83;;;1.58;;
16139;SDS011;8175;49.326;12.690;2023-08-31T12:31:16;2.35;;;1.50;;
16139;SDS011;8175;49.326;12.690;2023-08-31T12:33:42;1.30;;;1.20;;
16139;SDS011;8175;49.326;12.690;2023-08-31T12:36:08;4.85;;;2.15;;
16139;SDS011;8175;49.326;12.690;2023-08-31T12:38:34;1.52;;;1.42;;
16139;SDS011;8175;49.326;12.690;2023-08-31T12:40:59;1.70;;;1.60;;
16139;SDS011;8175;49.326;12.690;2023-08-31T12:43:26;2.60;;;1.67;;
16139;SDS011;8175;49.326;12.690;2023-08-31T12:45:53;1.50;;;1.30;;
16139;SDS011;8175;49.326;12.690;2023-08-31T12:48:19;2.25;;;1.30;;
16139;SDS011;8175;49.326;12.690;2023-08-31T12:50:45;2.50;;;1.65;;
16139;SDS011;8175;49.326;12.690;2023-08-31T12:53:13;2.10;;;1.40;;
16139;SDS011;8175;49.326;12.690;2023-08-31T12:55:41;2.23;;;1.70;;
16139;SDS011;8175;49.326;12.690;2023-08-31T12:58:07;2.78;;;1.77;;
16139;SDS011;8175;49.326;12.690;2023-08-31T13:00:33;2.05;;;1.40;;
16139;SDS011;8175;49.326;12.690;2023-08-31T13:02:59;1.63;;;1.53;;
16139;SDS011;8175;49.326;12.690;2023-08-31T13:05:26;2.00;;;1.80;;
16139;SDS011;8175;49.326;12.690;2023-08-31T13:07:53;2.10;;;1.35;;
16139;SDS011;8175;49.326;12.690;2023-08-31T13:10:19;2.60;;;1.67;;
16139;SDS011;8175;49.326;12.690;2023-08-31T13:12:45;2.78;;;1.42;;
16139;SDS011;8175;49.326;12.690;2023-08-31T13:15:11;1.60;;;1.30;;
16139;SDS011;8175;49.326;12.690;2023-08-31T13:17:38;2.13;;;1.83;;
16139;SDS011;8175;49.326;12.690;2023-08-31T13:20:04;1.70;;;1.35;;
16139;SDS011;8175;49.326;12.690;2023-08-31T13:22:30;1.63;;;1.33;;
16139;SDS011;8175;49.326;12.690;2023-08-31T13:24:56;4.50;;;1.60;;
16139;SDS011;8175;49.326;12.690;2023-08-31T13:27:21;1.52;;;1.42;;
16139;SDS011;8175;49.326;12.690;2023-08-31T13:29:47;1.95;;;1.70;;
16139;SDS011;8175;49.326;12.690;2023-08-31T13:32:13;2.17;;;1.90;;
16139;SDS011;8175;49.326;12.690;2023-08-31T13:34:38;1.92;;;1.50;;
16139;SDS011;8175;49.326;12.690;2023-08-31T13:37:04;1.70;;;1.50;;
16139;SDS011;8175;49.326;12.690;2023-08-31T13:39:30;1.42;;;1.33;;
16139;SDS011;8175;49.326;12.690;2023-08-31T13:41:58;2.42;;;1.60;;
16139;SDS011;8175;49.326;12.690;2023-08-31T13:44:27;2.30;;;1.52;;
16139;SDS011;8175;49.326;12.690;2023-08-31T13:46:52;2.65;;;1.50;;
16139;SDS011;8175;49.326;12.690;2023-08-31T13:49:18;2.45;;;1.50;;
16139;SDS011;8175;49.326;12.690;2023-08-31T13:51:43;2.23;;;1.50;;
16139;SDS011;8175;49.326;12.690;2023-08-31T13:54:10;2.03;;;1.47;;
16139;SDS011;8175;49.326;12.690;2023-08-31T13:56:36;2.43;;;1.60;;
16139;SDS011;8175;49.326;12.690;2023-08-31T13:59:02;1.67;;;1.47;;
16139;SDS011;8175;49.326;12.690;2023-08-31T14:01:28;3.83;;;1.50;;
16139;SDS011;8175;49.326;12.690;2023-08-31T14:03:55;1.77;;;1.67;;
16139;SDS011;8175;49.326;12.690;2023-08-31T14:06:20;2.58;;;1.63;;
16139;SDS011;8175;49.326;12.690;2023-08-31T14:08:46;2.50;;;1.80;;
16139;SDS011;8175;49.326;12.690;2023-08-31T14:11:11;2.08;;;1.70;;
16139;SDS011;8175;49.326;12.690;2023-08-31T14:13:38;2.08;;;1.67;;
16139;SDS011;8175;49.326;12.690;2023-08-31T14:16:03;2.13;;;1.38;;
16139;SDS011;8175;49.326;12.690;2023-08-31T14:18:29;2.95;;;1.70;;
16139;SDS011;8175;49.326;12.690;2023-08-31T14:20:56;1.77;;;1.60;;
16139;SDS011;8175;49.326;12.690;2023-08-31T14:23:24;3.83;;;1.58;;
16139;SDS011;8175;49.326;12.690;2023-08-31T14:25:49;2.17;;;1.60;;
16139;SDS011;8175;49.326;12.690;2023-08-31T14:28:15;2.15;;;1.73;;
16139;SDS011;8175;49.326;12.690;2023-08-31T14:30:41;2.00;;;1.63;;
16139;SDS011;8175;49.326;12.690;2023-08-31T14:33:06;3.53;;;1.90;;
16139;SDS011;8175;49.326;12.690;2023-08-31T14:35:35;2.03;;;1.65;;
16139;SDS011;8175;49.326;12.690;2023-08-31T14:38:04;2.80;;;1.50;;
16139;SDS011;8175;49.326;12.690;2023-08-31T14:40:30;2.42;;;1.65;;
16139;SDS011;8175;49.326;12.690;2023-08-31T14:42:57;2.10;;;1.55;;
16139;SDS011;8175;49.326;12.690;2023-08-31T14:45:23;3.17;;;1.70;;
16139;SDS011;8175;49.326;12.690;2023-08-31T14:47:49;2.70;;;1.55;;
16139;SDS011;8175;49.326;12.690;2023-08-31T14:50:14;1.70;;;1.40;;
16139;SDS011;8175;49.326;12.690;2023-08-31T14:52:40;2.47;;;2.03;;
16139;SDS011;8175;49.326;12.690;2023-08-31T14:55:06;2.08;;;1.80;;
16139;SDS011;8175;49.326;12.690;2023-08-31T14:57:31;2.33;;;1.70;;
16139;SDS011;8175;49.326;12.690;2023-08-31T14:59:57;2.28;;;1.80;;
16139;SDS011;8175;49.326;12.690;2023-08-31T15:02:24;1.80;;;1.60;;
16139;SDS011;8175;49.326;12.690;2023-08-31T15:04:50;2.72;;;1.70;;
16139;SDS011;8175;49.326;12.690;2023-08-31T15:07:16;1.80;;;1.70;;
16139;SDS011;8175;49.326;12.690;2023-08-31T15:09:42;3.40;;;1.67;;
16139;SDS011;8175;49.326;12.690;2023-08-31T15:12:08;2.10;;;1.85;;
16139;SDS011;8175;49.326;12.690;2023-08-31T15:14:34;2.03;;;1.80;;
16139;SDS011;8175;49.326;12.690;2023-08-31T15:17:00;3.17;;;1.90;;
16139;SDS011;8175;49.326;12.690;2023-08-31T15:19:25;1.95;;;1.60;;
16139;SDS011;8175;49.326;12.690;2023-08-31T15:21:51;2.90;;;2.03;;
16139;SDS011;8175;49.326;12.690;2023-08-31T15:24:16;1.95;;;1.52;;
16139;SDS011;8175;49.326;12.690;2023-08-31T15:26:42;1.67;;;1.40;;
16139;SDS011;8175;49.326;12.690;2023-08-31T15:29:09;2.75;;;2.10;;
16139;SDS011;8175;49.326;12.690;2023-08-31T15:31:34;2.03;;;1.50;;
16139;SDS011;8175;49.326;12.690;2023-08-31T15:34:00;1.73;;;1.63;;
16139;SDS011;8175;49.326;12.690;2023-08-31T15:36:26;2.45;;;1.73;;
16139;SDS011;8175;49.326;12.690;2023-08-31T15:38:52;2.65;;;1.60;;
16139;SDS011;8175;49.326;12.690;2023-08-31T15:41:18;1.60;;;1.48;;
16139;SDS011;8175;49.326;12.690;2023-08-31T15:43:43;2.72;;;1.70;;
16139;SDS011;8175;49.326;12.690;2023-08-31T15:46:09;3.22;;;1.95;;
16139;SDS011;8175;49.326;12.690;2023-08-31T15:48:35;2.05;;;1.85;;
16139;SDS011;8175;49.326;12.690;2023-08-31T15:51:00;1.95;;;1.42;;
16139;SDS011;8175;49.326;12.690;2023-08-31T15:53:26;2.30;;;2.10;;
16139;SDS011;8175;49.326;12.690;2023-08-31T15:55:53;2.43;;;1.80;;
16139;SDS011;8175;49.326;12.690;2023-08-31T15:58:19;2.00;;;1.80;;
16139;SDS011;8175;49.326;12.690;2023-08-31T16:00:45;2.87;;;1.70;;
16139;SDS011;8175;49.326;12.690;2023-08-31T16:03:12;3.20;;;1.70;;
16139;SDS011;8175;49.326;12.690;2023-08-31T16:05:37;4.10;;;1.70;;
16139;SDS011;8175;49.326;12.690;2023-08-31T16:08:03;1.83;;;1.60;;
16139;SDS011;8175;49.326;12.690;2023-08-31T16:10:30;3.30;;;1.97;;
16139;SDS011;8175;49.326;12.690;2023-08-31T16:12:57;2.40;;;1.80;;
16139;SDS011;8175;49.326;12.690;2023-08-31T16:15:26;2.37;;;1.80;;
16139;SDS011;8175;49.326;12.690;2023-08-31T16:17:52;3.27;;;2.13;;
16139;SDS011;8175;49.326;12.690;2023-08-31T16:20:18;2.50;;;2.07;;
16139;SDS011;8175;49.326;12.690;2023-08-31T16:22:45;3.73;;;1.97;;
16139;SDS011;8175;49.326;12.690;2023-08-31T16:25:10;3.27;;;2.50;;
16139;SDS011;8175;49.326;12.690;2023-08-31T16:27:37;2.00;;;1.80;;
16139;SDS011;8175;49.326;12.690;2023-08-31T16:30:05;2.10;;;1.90;;
16139;SDS011;8175;49.326;12.690;2023-08-31T16:32:32;3.13;;;2.03;;
16139;SDS011;8175;49.326;12.690;2023-08-31T16:34:57;3.00;;;2.70;;
16139;SDS011;8175;49.326;12.690;2023-08-31T16:37:23;3.50;;;2.40;;
16139;SDS011;8175;49.326;12.690;2023-08-31T16:39:52;3.47;;;2.20;;
16139;SDS011;8175;49.326;12.690;2023-08-31T16:42:17;2.50;;;2.10;;
16139;SDS011;8175;49.326;12.690;2023-08-31T16:44:43;2.33;;;2.13;;
16139;SDS011;8175;49.326;12.690;2023-08-31T16:47:09;2.93;;;2.00;;
16139;SDS011;8175;49.326;12.690;2023-08-31T16:49:35;3.00;;;2.10;;
16139;SDS011;8175;49.326;12.690;2023-08-31T16:52:01;2.97;;;2.03;;
16139;SDS011;8175;49.326;12.690;2023-08-31T16:54:28;4.13;;;1.93;;
16139;SDS011;8175;49.326;12.690;2023-08-31T16:56:54;2.67;;;2.00;;
16139;SDS011;8175;49.326;12.690;2023-08-31T16:59:20;1.87;;;1.70;;
16139;SDS011;8175;49.326;12.690;2023-08-31T17:01:46;4.60;;;2.20;;
16139;SDS011;8175;49.326;12.690;2023-08-31T17:04:12;2.70;;;2.00;;
16139;SDS011;8175;49.326;12.690;2023-08-31T17:06:38;3.60;;;2.00;;
16139;SDS011;8175;49.326;12.690;2023-08-31T17:09:04;2.57;;;2.03;;
16139;SDS011;8175;49.326;12.690;2023-08-31T17:11:32;3.30;;;1.97;;
16139;SDS011;8175;49.326;12.690;2023-08-31T17:13:59;2.63;;;1.70;;
16139;SDS011;8175;49.326;12.690;2023-08-31T17:16:26;3.67;;;2.20;;
16139;SDS011;8175;49.326;12.690;2023-08-31T17:18:51;2.30;;;1.70;;
16139;SDS011;8175;49.326;12.690;2023-08-31T17:21:17;1.97;;;1.50;;
16139;SDS011;8175;49.326;12.690;2023-08-31T17:23:43;3.20;;;2.13;;
16139;SDS011;8175;49.326;12.690;2023-08-31T17:26:19;2.07;;;1.83;;
16139;SDS011;8175;49.326;12.690;2023-08-31T17:28:51;3.33;;;1.97;;
16139;SDS011;8175;49.326;12.690;2023-08-31T17:31:17;4.03;;;1.90;;
16139;SDS011;8175;49.326;12.690;2023-08-31T17:33:45;2.53;;;2.00;;
16139;SDS011;8175;49.326;12.690;2023-08-31T17:36:11;2.70;;;2.13;;
16139;SDS011;8175;49.326;12.690;2023-08-31T17:38:38;3.00;;;2.07;;
16139;SDS011;8175;49.326;12.690;2023-08-31T17:41:07;3.40;;;2.57;;
16139;SDS011;8175;49.326;12.690;2023-08-31T17:43:33;2.10;;;1.90;;
16139;SDS011;8175;49.326;12.690;2023-08-31T17:45:58;2.50;;;2.03;;
16139;SDS011;8175;49.326;12.690;2023-08-31T17:48:24;4.63;;;1.90;;
16139;SDS011;8175;49.326;12.690;2023-08-31T17:50:50;2.63;;;2.20;;
16139;SDS011;8175;49.326;12.690;2023-08-31T17:53:15;4.00;;;2.20;;
16139;SDS011;8175;49.326;12.690;2023-08-31T17:55:42;3.37;;;2.13;;
16139;SDS011;8175;49.326;12.690;2023-08-31T17:58:08;2.37;;;2.03;;
16139;SDS011;8175;49.326;12.690;2023-08-31T18:00:33;2.90;;;1.97;;
16139;SDS011;8175;49.326;12.690;2023-08-31T18:02:59;2.30;;;2.10;;
16139;SDS011;8175;49.326;12.690;2023-08-31T18:05:25;2.30;;;1.90;;
16139;SDS011;8175;49.326;12.690;2023-08-31T18:07:50;2.53;;;1.80;;
16139;SDS011;8175;49.326;12.690;2023-08-31T18:10:16;2.73;;;2.00;;
16139;SDS011;8175;49.326;12.690;2023-08-31T18:12:46;2.27;;;1.90;;
16139;SDS011;8175;49.326;12.690;2023-08-31T18:15:12;3.37;;;2.30;;
16139;SDS011;8175;49.326;12.690;2023-08-31T18:17:37;2.37;;;1.83;;
16139;SDS011;8175;49.326;12.690;2023-08-31T18:20:03;2.60;;;2.00;;
16139;SDS011;8175;49.326;12.690;2023-08-31T18:22:29;2.53;;;2.30;;
16139;SDS011;8175;49.326;12.690;2023-08-31T18:24:56;3.37;;;2.27;;
16139;SDS011;8175;49.326;12.690;2023-08-31T18:27:22;2.70;;;2.17;;
16139;SDS011;8175;49.326;12.690;2023-08-31T18:29:47;3.03;;;2.07;;
16139;SDS011;8175;49.326;12.690;2023-08-31T18:32:13;2.90;;;2.47;;
16139;SDS011;8175;49.326;12.690;2023-08-31T18:34:39;2.00;;;1.80;;
16139;SDS011;8175;49.326;12.690;2023-08-31T18:37:05;4.83;;;2.30;;
16139;SDS011;8175;49.326;12.690;2023-08-31T18:39:30;2.97;;;2.50;;
16139;SDS011;8175;49.326;12.690;2023-08-31T18:41:56;3.77;;;2.50;;
16139;SDS011;8175;49.326;12.690;2023-08-31T18:44:22;2.70;;;1.80;;
16139;SDS011;8175;49.326;12.690;2023-08-31T18:46:49;2.47;;;2.10;;
16139;SDS011;8175;49.326;12.690;2023-08-31T18:49:15;2.20;;;2.00;;
16139;SDS011;8175;49.326;12.690;2023-08-31T18:51:41;2.63;;;2.10;;
16139;SDS011;8175;49.326;12.690;2023-08-31T18:54:08;3.77;;;1.97;;
16139;SDS011;8175;49.326;12.690;2023-08-31T18:56:34;2.93;;;2.13;;
16139;SDS011;8175;49.326;12.690;2023-08-31T18:59:00;2.30;;;2.07;;
16139;SDS011;8175;49.326;12.690;2023-08-31T19:01:27;2.53;;;2.10;;
16139;SDS011;8175;49.326;12.690;2023-08-31T19:03:52;2.57;;;2.30;;
16139;SDS011;8175;49.326;12.690;2023-08-31T19:06:21;3.13;;;2.13;;
16139;SDS011;8175;49.326;12.690;2023-08-31T19:08:51;4.63;;;1.90;;
16139;SDS011;8175;49.326;12.690;2023-08-31T19:11:18;2.93;;;2.17;;
16139;SDS011;8175;49.326;12.690;2023-08-31T19:13:43;2.53;;;2.07;;
16139;SDS011;8175;49.326;12.690;2023-08-31T19:16:14;3.97;;;2.17;;
16139;SDS011;8175;49.326;12.690;2023-08-31T19:18:40;2.53;;;2.00;;
16139;SDS011;8175;49.326;12.690;2023-08-31T19:21:06;2.40;;;2.13;;
16139;SDS011;8175;49.326;12.690;2023-08-31T19:23:31;3.97;;;2.70;;
16139;SDS011;8175;49.326;12.690;2023-08-31T19:26:04;2.10;;;1.60;;
16139;SDS011;8175;49.326;12.690;2023-08-31T19:28:38;3.50;;;2.00;;
16139;SDS011;8175;49.326;12.690;2023-08-31T19:31:05;3.37;;;2.53;;
16139;SDS011;8175;49.326;12.690;2023-08-31T19:33:31;2.40;;;1.93;;
16139;SDS011;8175;49.326;12.690;2023-08-31T19:35:57;3.77;;;2.23;;
16139;SDS011;8175;49.326;12.690;2023-08-31T19:38:23;2.63;;;1.83;;
16139;SDS011;8175;49.326;12.690;2023-08-31T19:40:49;2.53;;;2.00;;
16139;SDS011;8175;49.326;12.690;2023-08-31T19:43:18;3.00;;;2.10;;
16139;SDS011;8175;49.326;12.690;2023-08-31T19:45:44;2.43;;;2.07;;
16139;SDS011;8175;49.326;12.690;2023-08-31T19:48:10;2.97;;;1.97;;
16139;SDS011;8175;49.326;12.690;2023-08-31T19:50:36;2.63;;;2.27;;
16139;SDS011;8175;49.326;12.690;2023-08-31T19:53:03;2.10;;;1.90;;
16139;SDS011;8175;49.326;12.690;2023-08-31T19:55:30;2.43;;;1.77;;
16139;SDS011;8175;49.326;12.690;2023-08-31T19:57:56;3.30;;;2.23;;
16139;SDS011;8175;49.326;12.690;2023-08-31T20:00:24;3.67;;;2.20;;
16139;SDS011;8175;49.326;12.690;2023-08-31T20:02:50;3.43;;;2.50;;
16139;SDS011;8175;49.326;12.690;2023-08-31T20:05:16;2.40;;;1.90;;
16139;SDS011;8175;49.326;12.690;2023-08-31T20:07:44;3.60;;;2.57;;
16139;SDS011;8175;49.326;12.690;2023-08-31T20:10:11;2.63;;;2.03;;
16139;SDS011;8175;49.326;12.690;2023-08-31T20:12:37;3.47;;;1.97;;
16139;SDS011;8175;49.326;12.690;2023-08-31T20:15:03;3.03;;;2.03;;
16139;SDS011;8175;49.326;12.690;2023-08-31T20:17:29;3.17;;;2.07;;
16139;SDS011;8175;49.326;12.690;2023-08-31T20:19:55;3.17;;;2.17;;
16139;SDS011;8175;49.326;12.690;2023-08-31T20:22:21;4.50;;;2.40;;
16139;SDS011;8175;49.326;12.690;2023-08-31T20:24:47;4.10;;;2.07;;
16139;SDS011;8175;49.326;12.690;2023-08-31T20:27:13;2.70;;;1.97;;
16139;SDS011;8175;49.326;12.690;2023-08-31T20:29:39;2.17;;;1.77;;
16139;SDS011;8175;49.326;12.690;2023-08-31T20:32:05;2.17;;;1.70;;
16139;SDS011;8175;49.326;12.690;2023-08-31T20:34:31;1.73;;;1.43;;
16139;SDS011;8175;49.326;12.690;2023-08-31T20:36:57;2.17;;;1.80;;
16139;SDS011;8175;49.326;12.690;2023-08-31T20:39:25;2.73;;;1.90;;
16139;SDS011;8175;49.326;12.690;2023-08-31T20:41:52;2.10;;;1.90;;
16139;SDS011;8175;49.326;12.690;2023-08-31T20:44:18;3.53;;;2.30;;
16139;SDS011;8175;49.326;12.690;2023-08-31T20:46:44;2.23;;;1.87;;
16139;SDS011;8175;49.326;12.690;2023-08-31T20:49:11;3.30;;;2.13;;
16139;SDS011;8175;49.326;12.690;2023-08-31T20:51:39;3.90;;;2.43;;
16139;SDS011;8175;49.326;12.690;2023-08-31T20:54:06;2.40;;;2.20;;
16139;SDS011;8175;49.326;12.690;2023-08-31T20:56:32;2.60;;;2.30;;
16139;SDS011;8175;49.326;12.690;2023-08-31T20:58:58;4.03;;;2.10;;
16139;SDS011;8175;49.326;12.690;2023-08-31T21:01:24;3.00;;;2.00;;
16139;SDS011;8175;49.326;12.690;2023-08-31T21:03:56;3.87;;;2.47;;
16139;SDS011;8175;49.326;12.690;2023-08-31T21:06:24;4.43;;;2.10;;
16139;SDS011;8175;49.326;12.690;2023-08-31T21:08:50;3.83;;;2.10;;